createdAt,value
2022-12-08T00:01:45.841Z,92.73
2022-12-08T00:04:17.599Z,92.67
2022-12-08T00:07:21.578Z,92.36
2022-12-08T00:09:53.146Z,92.38
2022-12-08T00:12:24.852Z,91.79
2022-12-08T00:14:56.737Z,91.32
2022-12-08T00:17:28.937Z,91.05
2022-12-08T00:20:00.628Z,91.44
2022-12-08T00:22:32.974Z,92.07
2022-12-08T00:25:05.312Z,92.69
2022-12-08T00:27:37.319Z,93.44
2022-12-08T00:30:12.054Z,93.59
2022-12-08T00:32:43.675Z,93.54
2022-12-08T00:35:15.462Z,93.56
2022-12-08T00:37:47.146Z,93.34
2022-12-08T00:40:19.369Z,93.38
2022-12-08T00:42:51.110Z,93.65
2022-12-08T00:45:22.828Z,93.54
2022-12-08T00:47:54.667Z,93.39
2022-12-08T00:50:26.259Z,93.66
2022-12-08T00:52:57.874Z,93.58
2022-12-08T00:55:29.621Z,93.36
2022-12-08T00:58:01.257Z,93.78
2022-12-08T01:00:32.976Z,93.59
2022-12-08T01:03:05.122Z,93.95
2022-12-08T01:05:36.738Z,93.26
2022-12-08T01:08:09.973Z,92.48
2022-12-08T01:10:41.639Z,91.83
2022-12-08T01:13:13.297Z,91.44
2022-12-08T01:15:45.113Z,91.21
2022-12-08T01:18:16.967Z,91.17
2022-12-08T01:20:49.925Z,91.15
2022-12-08T01:23:21.525Z,91.13
2022-12-08T01:25:53.608Z,91.45
2022-12-08T01:28:25.223Z,91.49
2022-12-08T01:30:56.928Z,91.43
2022-12-08T01:33:29.447Z,91.31
2022-12-08T01:36:05.798Z,91.30
2022-12-08T01:38:37.660Z,91.49
2022-12-08T01:41:10.976Z,92.09
2022-12-08T01:44:01.187Z,92.18
2022-12-08T01:46:35.736Z,92.08
2022-12-08T01:49:12.298Z,92.27
2022-12-08T01:51:48.316Z,91.92
2022-12-08T01:54:22.816Z,92.40
2022-12-08T01:57:00.117Z,93.16
2022-12-08T01:59:34.145Z,94.33
2022-12-08T02:02:06.617Z,94.42
2022-12-08T02:04:38.902Z,94.08
2022-12-08T02:07:13.495Z,93.90
2022-12-08T02:09:46.269Z,94.41
2022-12-08T02:12:18.308Z,95.26
2022-12-08T02:14:50.009Z,94.64
2022-12-08T02:17:40.111Z,94.16
2022-12-08T02:20:42.061Z,94.09
2022-12-08T02:23:24.808Z,95.07
2022-12-08T02:26:17.851Z,95.69
2022-12-08T02:28:58.901Z,94.96
2022-12-08T02:31:45.975Z,95.21
2022-12-08T02:34:26.366Z,95.42
2022-12-08T02:37:05.512Z,94.85
2022-12-08T02:39:45.897Z,94.38
2022-12-08T02:42:27.063Z,94.23
2022-12-08T02:45:06.324Z,94.78
2022-12-08T02:47:38.858Z,95.16
2022-12-08T02:50:10.507Z,94.89
2022-12-08T02:52:44.941Z,94.61
2022-12-08T02:55:28.981Z,94.28
2022-12-08T02:58:18.239Z,94.11
2022-12-08T03:01:11.956Z,93.87
2022-12-08T03:03:52.081Z,93.53
2022-12-08T03:06:32.353Z,93.51
2022-12-08T03:09:11.277Z,94.09
2022-12-08T03:11:49.287Z,93.94
2022-12-08T03:14:22.915Z,93.80
2022-12-08T03:16:59.589Z,93.56
2022-12-08T03:19:36.424Z,93.87
2022-12-08T03:22:10.330Z,93.83
2022-12-08T03:24:45.031Z,94.08
2022-12-08T03:27:19.943Z,94.19
2022-12-08T03:29:54.947Z,93.77
2022-12-08T03:32:31.547Z,94.18
2022-12-08T03:35:05.071Z,94.08
2022-12-08T03:37:39.158Z,94.67
2022-12-08T03:40:15.099Z,95.67
2022-12-08T03:42:46.956Z,95.13
2022-12-08T03:45:19.112Z,94.77
2022-12-08T03:47:50.936Z,95.01
2022-12-08T03:50:24.273Z,95.75
2022-12-08T03:52:56.080Z,95.63
2022-12-08T03:55:28.520Z,95.98
2022-12-08T03:58:00.264Z,95.96
2022-12-08T04:00:32.050Z,95.64
2022-12-08T04:03:04.707Z,95.31
2022-12-08T04:05:36.763Z,94.96
2022-12-08T04:08:08.767Z,94.78
2022-12-08T04:10:40.504Z,95.34
2022-12-08T04:13:12.051Z,95.69
2022-12-08T04:15:47.444Z,95.19
2022-12-08T04:18:19.925Z,95.14
2022-12-08T04:20:51.517Z,95.11
2022-12-08T04:23:23.291Z,94.71
2022-12-08T04:25:55.678Z,94.48
2022-12-08T04:28:29.443Z,94.83
2022-12-08T04:31:01.307Z,95.79
2022-12-08T04:33:33.145Z,95.36
2022-12-08T04:36:05.669Z,95.25
2022-12-08T04:38:37.701Z,95.17
2022-12-08T04:41:09.904Z,94.92
2022-12-08T04:43:44.211Z,95.03
2022-12-08T04:46:15.930Z,95.08
2022-12-08T04:48:47.917Z,95.61
2022-12-08T04:51:21.077Z,95.97
2022-12-08T04:53:52.767Z,96.36
2022-12-08T04:56:24.737Z,96.44
2022-12-08T04:58:56.566Z,95.85
2022-12-08T05:01:28.267Z,95.51
2022-12-08T05:04:00.452Z,96.39
2022-12-08T05:06:32.204Z,96.75
2022-12-08T05:09:03.868Z,96.39
2022-12-08T05:11:35.839Z,96.34
2022-12-08T05:14:09.864Z,96.34
2022-12-08T05:16:41.563Z,96.37
2022-12-08T05:19:14.094Z,96.23
2022-12-08T05:21:46.146Z,96.22
2022-12-08T05:24:18.004Z,95.82
2022-12-08T05:26:50.217Z,95.75
2022-12-08T05:29:21.855Z,95.80
2022-12-08T05:31:53.628Z,95.80
2022-12-08T05:34:25.433Z,95.44
2022-12-08T05:36:57.379Z,95.41
2022-12-08T05:39:29.122Z,95.70
2022-12-08T05:42:00.747Z,95.87
2022-12-08T05:44:32.453Z,95.87
2022-12-08T05:47:04.123Z,95.73
2022-12-08T05:49:36.587Z,95.64
2022-12-08T05:52:08.747Z,95.39
2022-12-08T05:54:40.779Z,95.05
2022-12-08T05:57:12.811Z,95.14
2022-12-08T05:59:44.516Z,95.30
2022-12-08T06:02:16.321Z,95.27
2022-12-08T06:04:48.709Z,95.14
2022-12-08T06:07:20.516Z,95.12
2022-12-08T06:09:52.494Z,95.39
2022-12-08T06:12:24.213Z,95.16
2022-12-08T06:14:56.091Z,94.97
2022-12-08T06:17:27.779Z,94.77
2022-12-08T06:19:59.580Z,94.95
2022-12-08T06:22:31.323Z,94.89
2022-12-08T06:25:06.049Z,95.06
2022-12-08T06:27:40.421Z,95.07
2022-12-08T06:30:12.893Z,95.14
2022-12-08T06:32:45.158Z,95.23
2022-12-08T06:35:16.783Z,95.19
2022-12-08T06:37:48.538Z,95.07
2022-12-08T06:40:20.397Z,95.08
2022-12-08T06:42:52.187Z,94.93
2022-12-08T06:45:24.103Z,95.00
2022-12-08T06:47:55.654Z,95.05
2022-12-08T06:50:27.374Z,95.14
2022-12-08T06:53:05.245Z,95.19
2022-12-08T06:58:29.910Z,95.59
2022-12-08T07:01:06.761Z,95.63
2022-12-08T07:03:39.671Z,95.66
2022-12-08T07:06:17.737Z,95.60
2022-12-08T07:08:49.476Z,95.59
2022-12-08T07:11:22.607Z,95.64
2022-12-08T07:13:56.704Z,96.32
2022-12-08T07:16:28.316Z,96.05
2022-12-08T07:19:00.328Z,95.98
2022-12-08T07:21:32.490Z,96.41
2022-12-08T07:24:04.111Z,96.88
2022-12-08T07:26:36.306Z,97.15
2022-12-08T07:29:08.880Z,96.89
2022-12-08T07:31:40.557Z,96.64
2022-12-08T07:34:13.749Z,96.79
2022-12-08T07:36:45.439Z,96.91
2022-12-08T07:39:17.226Z,97.09
2022-12-08T07:41:48.919Z,97.16
2022-12-08T07:44:20.665Z,97.21
2022-12-08T07:46:52.240Z,97.42
2022-12-08T07:49:24.316Z,97.53
2022-12-08T07:51:55.957Z,97.68
2022-12-08T07:54:28.356Z,97.88
2022-12-08T07:57:01.098Z,97.86
2022-12-08T07:59:33.259Z,98.01
2022-12-08T08:02:23.508Z,98.30
2022-12-08T08:04:56.392Z,98.21
2022-12-08T08:07:28.056Z,98.40
2022-12-08T08:09:59.685Z,98.36
2022-12-08T08:12:32.532Z,98.09
2022-12-08T08:15:07.330Z,98.14
2022-12-08T08:17:40.086Z,98.15
2022-12-08T08:20:13.760Z,98.36
2022-12-08T08:22:46.288Z,98.48
2022-12-08T08:25:19.745Z,98.66
2022-12-08T08:27:51.952Z,98.89
2022-12-08T08:30:24.118Z,99.20
2022-12-08T08:32:56.078Z,99.51
2022-12-08T08:35:27.725Z,99.42
2022-12-08T08:37:59.363Z,99.41
2022-12-08T08:40:30.980Z,99.34
2022-12-08T08:43:04.629Z,99.55
2022-12-08T08:45:36.714Z,99.38
2022-12-08T08:48:08.853Z,99.39
2022-12-08T08:50:40.732Z,99.23
2022-12-08T08:53:12.552Z,99.07
2022-12-08T08:55:44.111Z,99.15
2022-12-08T08:58:15.839Z,98.94
2022-12-08T09:00:50.956Z,99.11
2022-12-08T09:03:22.676Z,99.10
2022-12-08T09:05:55.880Z,99.33
2022-12-08T09:08:27.827Z,99.32
2022-12-08T09:10:59.751Z,99.27
2022-12-08T09:13:31.457Z,99.19
2022-12-08T09:16:04.726Z,99.03
2022-12-08T09:18:36.863Z,99.36
2022-12-08T09:21:11.518Z,99.97
2022-12-08T09:23:43.610Z,99.91
2022-12-08T09:26:15.382Z,100.00
2022-12-08T09:28:47.679Z,100.00
2022-12-08T09:31:21.506Z,100.00
2022-12-08T09:33:53.762Z,100.00
2022-12-08T09:36:25.835Z,100.00
2022-12-08T09:38:57.817Z,100.00
2022-12-08T09:41:39.219Z,100.00
2022-12-08T09:44:21.044Z,99.60
2022-12-08T09:46:55.605Z,99.72
2022-12-08T09:49:36.687Z,99.09
2022-12-08T09:52:21.262Z,99.43
2022-12-08T09:54:53.387Z,99.94
2022-12-08T09:57:26.913Z,100.00
2022-12-08T10:00:04.302Z,99.97
2022-12-08T10:02:37.029Z,100.00
2022-12-08T10:05:13.851Z,99.98
2022-12-08T10:07:49.251Z,99.99
2022-12-08T10:10:34.731Z,99.99
2022-12-08T10:13:16.681Z,100.00
2022-12-08T10:15:54.392Z,100.00
2022-12-08T10:18:30.665Z,99.56
2022-12-08T10:21:18.187Z,99.64
2022-12-08T10:23:52.863Z,99.59
2022-12-08T10:26:24.902Z,99.22
2022-12-08T10:29:01.294Z,98.78
2022-12-08T10:31:34.069Z,98.69
2022-12-08T10:34:18.602Z,99.18
2022-12-08T10:36:53.107Z,99.27
2022-12-08T10:39:37.997Z,99.41
2022-12-08T10:42:22.587Z,99.54
2022-12-08T10:45:05.673Z,99.79
2022-12-08T10:47:44.853Z,99.99
2022-12-08T10:50:30.177Z,100.00
2022-12-08T10:53:03.506Z,100.00
2022-12-08T10:55:44.068Z,100.00
2022-12-08T10:58:33.713Z,100.00
2022-12-08T11:01:12.132Z,100.00
2022-12-08T11:03:48.866Z,100.00
2022-12-08T11:06:24.883Z,99.90
2022-12-08T11:08:58.377Z,100.00
2022-12-08T11:11:45.850Z,100.00
2022-12-08T11:14:23.922Z,100.00
2022-12-08T11:17:03.501Z,99.91
2022-12-08T11:19:39.952Z,99.94
2022-12-08T11:22:25.707Z,100.00
2022-12-08T11:25:03.491Z,99.78
2022-12-08T11:27:36.905Z,99.24
2022-12-08T11:30:26.620Z,99.32
2022-12-08T11:33:02.565Z,98.93
2022-12-08T11:35:39.310Z,98.80
2022-12-08T11:38:21.657Z,99.14
2022-12-08T11:40:56.716Z,99.98
2022-12-08T11:43:37.346Z,99.89
2022-12-08T11:46:17.721Z,99.55
2022-12-08T11:48:54.561Z,99.63
2022-12-08T11:51:33.297Z,99.54
2022-12-08T11:54:15.977Z,98.88
2022-12-08T11:56:52.348Z,98.83
2022-12-08T11:59:30.957Z,98.88
2022-12-08T12:02:05.524Z,98.33
2022-12-08T12:04:42.454Z,98.39
2022-12-08T12:07:48.231Z,98.04
2022-12-08T12:10:35.090Z,98.10
2022-12-08T12:13:31.434Z,98.31
2022-12-08T12:16:24.586Z,97.97
2022-12-08T12:19:00.557Z,98.01
2022-12-08T12:21:39.373Z,98.02
2022-12-08T12:24:22.244Z,97.87
2022-12-08T12:27:01.246Z,97.89
2022-12-08T12:29:35.046Z,97.72
2022-12-08T12:32:09.800Z,97.84
2022-12-08T12:34:49.760Z,97.27
2022-12-08T12:37:24.990Z,96.63
2022-12-08T12:40:02.927Z,96.18
2022-12-08T12:42:45.179Z,96.33
2022-12-08T12:45:32.904Z,96.51
2022-12-08T12:48:25.158Z,97.34
2022-12-08T12:50:57.371Z,97.01
2022-12-08T12:53:54.953Z,96.56
2022-12-08T12:56:50.834Z,96.91
2022-12-08T12:59:36.772Z,96.29
2022-12-08T13:02:19.194Z,95.01
2022-12-08T13:04:59.983Z,94.67
2022-12-08T13:07:35.046Z,95.55
2022-12-08T13:10:18.173Z,95.73
2022-12-08T13:13:06.776Z,94.90
2022-12-08T13:15:41.170Z,94.70
2022-12-08T13:18:22.673Z,94.83
2022-12-08T13:21:03.912Z,95.93
2022-12-08T13:23:51.060Z,96.49
2022-12-08T13:26:25.194Z,96.40
2022-12-08T13:29:20.481Z,95.82
2022-12-08T13:31:55.854Z,96.55
2022-12-08T13:34:35.603Z,96.30
2022-12-08T13:37:27.229Z,96.29
2022-12-08T13:40:03.767Z,95.82
2022-12-08T13:42:44.793Z,95.68
2022-12-08T13:45:59.017Z,95.44
2022-12-08T13:48:31.151Z,95.06
2022-12-08T13:57:25.519Z,95.21
2022-12-08T14:00:03.069Z,95.02
2022-12-08T14:02:48.536Z,94.87
2022-12-08T14:05:40.661Z,94.86
2022-12-08T14:08:58.364Z,94.72
2022-12-08T14:11:35.355Z,94.48
2022-12-08T14:14:10.711Z,94.36
2022-12-08T14:16:46.328Z,94.12
2022-12-08T14:19:21.181Z,93.89
2022-12-08T14:21:59.873Z,94.02
2022-12-08T14:24:33.421Z,94.31
2022-12-08T14:27:07.512Z,94.26
2022-12-08T14:29:47.404Z,93.83
2022-12-08T14:32:34.679Z,93.54
2022-12-08T14:35:23.102Z,93.45
2022-12-08T14:37:58.526Z,93.65
2022-12-08T14:40:34.876Z,93.60
2022-12-08T14:43:17.860Z,93.39
2022-12-08T14:45:55.426Z,93.42
2022-12-08T14:48:40.797Z,93.37
2022-12-08T14:51:20.952Z,93.18
2022-12-08T14:53:58.599Z,92.93
2022-12-08T14:56:37.282Z,92.74
2022-12-08T14:59:16.372Z,92.82
2022-12-08T15:01:50.162Z,92.77
2022-12-08T15:04:25.675Z,92.64
2022-12-08T15:07:06.119Z,92.68
2022-12-08T15:09:41.867Z,92.68
2022-12-08T15:12:27.256Z,92.72
2022-12-08T15:15:02.432Z,92.87
2022-12-08T15:17:42.844Z,93.09
2022-12-08T15:20:35.097Z,93.47
2022-12-08T15:23:07.952Z,93.84
2022-12-08T15:25:40.903Z,94.08
2022-12-08T15:28:15.236Z,94.19
2022-12-08T15:30:47.671Z,94.17
2022-12-08T15:33:19.562Z,94.27
2022-12-08T15:35:51.965Z,94.38
2022-12-08T15:38:26.738Z,94.50
2022-12-08T15:40:59.599Z,94.48
2022-12-08T15:43:33.701Z,94.40
2022-12-08T15:46:07.384Z,94.34
2022-12-08T15:48:40.650Z,94.40
2022-12-08T15:51:12.634Z,94.40
2022-12-08T15:53:44.336Z,94.41
2022-12-08T15:56:27.384Z,94.21
2022-12-08T15:59:00.223Z,93.95
2022-12-08T16:01:31.870Z,93.92
2022-12-08T16:09:47.921Z,93.63
2022-12-08T16:13:34.042Z,93.14
2022-12-08T16:16:01.692Z,92.92
2022-12-08T16:18:27.986Z,92.57
2022-12-08T16:23:52.163Z,92.58
2022-12-08T16:29:19.484Z,92.14
2022-12-08T16:31:52.936Z,92.07
2022-12-08T16:34:24.704Z,91.72
2022-12-08T16:36:56.375Z,91.41
2022-12-08T16:39:28.198Z,91.17
2022-12-08T16:42:17.713Z,91.15
2022-12-08T16:44:49.618Z,91.05
2022-12-08T16:47:21.413Z,91.12
2022-12-08T16:49:53.449Z,91.03
2022-12-08T16:52:25.237Z,90.93
2022-12-08T16:54:57.595Z,90.97
2022-12-08T16:57:29.342Z,91.03
2022-12-08T17:00:00.986Z,91.32
2022-12-08T17:02:33.006Z,91.15
2022-12-08T17:05:06.631Z,90.96
2022-12-08T17:07:38.908Z,90.91
2022-12-08T17:10:14.504Z,90.76
2022-12-08T17:12:48.305Z,90.80
2022-12-08T17:15:23.858Z,90.74
2022-12-08T17:17:56.034Z,90.56
2022-12-08T17:20:29.746Z,90.52
2022-12-08T17:23:01.589Z,90.73
2022-12-08T17:25:33.477Z,90.77
2022-12-08T17:28:05.264Z,90.56
2022-12-08T17:30:36.844Z,90.60
2022-12-08T17:33:08.900Z,90.36
2022-12-08T17:35:40.661Z,90.49
2022-12-08T17:38:12.394Z,90.39
2022-12-08T17:40:45.517Z,90.36
2022-12-08T17:43:18.333Z,90.32
2022-12-08T17:45:50.993Z,90.47
2022-12-08T17:48:21.222Z,90.44
2022-12-08T17:50:53.507Z,90.43
2022-12-08T17:53:25.568Z,90.42
2022-12-08T17:55:59.603Z,90.53
2022-12-08T17:58:32.134Z,90.57
2022-12-08T18:01:10.210Z,90.65
2022-12-08T18:03:42.516Z,90.63
2022-12-08T18:06:15.073Z,90.40
2022-12-08T18:08:45.373Z,90.47
2022-12-08T18:11:19.557Z,90.44
2022-12-08T18:13:52.910Z,90.08
2022-12-08T18:16:27.451Z,89.81
2022-12-08T18:18:59.259Z,89.60
2022-12-08T18:21:31.274Z,89.56
2022-12-08T18:24:03.834Z,89.84
2022-12-08T18:26:34.629Z,89.77
2022-12-08T18:29:06.658Z,89.87
2022-12-08T18:31:38.349Z,89.88
2022-12-08T18:34:10.278Z,89.36
2022-12-08T18:36:42.727Z,89.33
2022-12-08T18:39:24.229Z,89.47
2022-12-08T18:41:57.915Z,89.35
2022-12-08T18:44:30.790Z,88.92
2022-12-08T18:47:02.573Z,88.82
2022-12-08T18:49:34.205Z,88.71
2022-12-08T18:52:06.410Z,88.55
2022-12-08T18:57:30.796Z,88.13
2022-12-08T19:00:03.328Z,88.31
2022-12-08T19:02:36.204Z,88.42
2022-12-08T19:05:07.253Z,88.96
2022-12-08T19:07:39.098Z,89.99
2022-12-08T19:10:12.551Z,90.41
2022-12-08T19:12:44.724Z,90.62
2022-12-08T19:15:16.954Z,91.05
2022-12-08T19:17:48.989Z,91.51
2022-12-08T19:20:20.973Z,91.80
2022-12-08T19:22:52.727Z,92.01
2022-12-08T19:25:24.920Z,92.36
2022-12-08T19:27:57.000Z,92.68
2022-12-08T19:30:28.826Z,93.25
2022-12-08T19:33:00.631Z,92.98
2022-12-08T19:35:32.392Z,92.40
2022-12-08T19:38:04.372Z,91.95
2022-12-08T19:40:53.921Z,91.57
2022-12-08T19:43:43.119Z,91.19
2022-12-08T19:46:16.572Z,90.78
2022-12-08T19:48:48.419Z,90.66
2022-12-08T19:51:20.169Z,91.03
2022-12-08T19:53:51.941Z,91.34
2022-12-08T19:56:23.989Z,91.81
2022-12-08T19:58:55.981Z,91.71
2022-12-08T20:01:28.278Z,91.66
2022-12-08T20:04:00.943Z,91.74
2022-12-08T20:06:33.659Z,91.97
2022-12-08T20:09:07.547Z,91.66
2022-12-08T20:11:40.913Z,91.79
2022-12-08T20:17:26.697Z,91.98
2022-12-08T20:20:01.559Z,91.88
2022-12-08T20:22:37.385Z,91.88
2022-12-08T20:25:13.073Z,91.82
2022-12-08T20:27:45.841Z,92.40
2022-12-08T20:30:17.612Z,93.84
2022-12-08T20:32:49.434Z,93.93
2022-12-08T20:35:21.127Z,94.06
2022-12-08T20:37:52.896Z,93.98
2022-12-08T20:40:27.649Z,95.14
2022-12-08T20:42:59.478Z,95.63
2022-12-08T20:45:31.326Z,95.81
2022-12-08T20:48:03.257Z,97.32
2022-12-08T20:50:35.262Z,98.05
2022-12-08T20:53:07.920Z,97.71
2022-12-08T20:55:43.195Z,97.77
2022-12-08T20:58:15.378Z,97.68
2022-12-08T21:00:47.831Z,97.51
2022-12-08T21:03:19.865Z,98.37
2022-12-08T21:05:53.212Z,98.85
2022-12-08T21:08:28.200Z,98.43
2022-12-08T21:11:00.246Z,98.43
2022-12-08T21:13:32.372Z,98.04
2022-12-08T21:16:04.930Z,97.55
2022-12-08T21:18:39.491Z,97.44
2022-12-08T21:21:14.337Z,97.04
2022-12-08T21:23:46.626Z,96.48
2022-12-08T21:26:21.688Z,96.92
2022-12-08T21:28:54.726Z,97.96
2022-12-08T21:31:29.281Z,98.65
2022-12-08T21:34:02.170Z,98.90
2022-12-08T21:36:34.812Z,97.59
2022-12-08T21:39:12.435Z,96.66
2022-12-08T21:42:01.923Z,96.45
2022-12-08T21:44:35.438Z,97.67
2022-12-08T21:47:07.945Z,98.60
2022-12-08T21:49:39.783Z,98.69
2022-12-08T21:52:11.725Z,97.37
2022-12-08T21:54:43.759Z,96.95
2022-12-08T21:57:15.678Z,98.08
2022-12-08T21:59:47.491Z,98.82
2022-12-08T22:02:22.487Z,99.14
2022-12-08T22:04:57.891Z,99.52
2022-12-08T22:07:29.750Z,99.32
2022-12-08T22:10:01.891Z,99.40
2022-12-08T22:12:33.674Z,99.27
2022-12-08T22:15:06.849Z,99.94
2022-12-08T22:17:40.574Z,100.00
2022-12-08T22:20:15.050Z,100.00
2022-12-08T22:22:47.303Z,100.00
2022-12-08T22:25:19.191Z,100.00
2022-12-08T22:27:54.403Z,99.83
2022-12-08T22:30:26.308Z,98.92
2022-12-08T22:32:58.869Z,99.19
2022-12-08T22:35:30.855Z,99.87
2022-12-08T22:38:02.725Z,99.80
2022-12-08T22:40:34.617Z,100.00
2022-12-08T22:43:06.391Z,100.00
2022-12-08T22:45:38.305Z,99.69
2022-12-08T22:48:10.642Z,99.55
2022-12-08T22:50:43.051Z,98.69
2022-12-08T22:53:15.480Z,99.38
2022-12-08T22:55:47.671Z,100.00
2022-12-08T22:58:19.862Z,99.99
2022-12-08T23:00:51.758Z,99.98
2022-12-08T23:03:23.748Z,99.95
2022-12-08T23:05:56.053Z,98.91
2022-12-08T23:08:28.225Z,97.86
2022-12-08T23:11:00.226Z,97.66
2022-12-08T23:13:31.979Z,98.31
2022-12-08T23:16:03.655Z,99.59
2022-12-08T23:18:35.369Z,99.75
2022-12-08T23:21:10.088Z,99.97
2022-12-08T23:23:41.991Z,100.00
2022-12-08T23:26:21.272Z,99.96
2022-12-08T23:28:53.545Z,99.68
2022-12-08T23:31:26.337Z,99.62
2022-12-08T23:33:58.762Z,99.69
2022-12-08T23:36:31.567Z,99.83
2022-12-08T23:39:03.330Z,98.71
2022-12-08T23:41:35.282Z,98.03
2022-12-08T23:44:09.099Z,98.60
2022-12-08T23:46:41.176Z,99.26
2022-12-08T23:49:13.042Z,99.56
2022-12-08T23:51:44.724Z,99.42
2022-12-08T23:54:16.879Z,99.18
2022-12-08T23:56:48.572Z,98.69
2022-12-08T23:59:20.491Z,98.99
